Time;durP1;ratioP1;P1;durP2;ratioP2;P2;SDS_P1;SDS_P2;PMS_P1;PMS_P2;Temp;Humidity;BMP_temperature;BMP_pressure;BME280_temperature;BME280_humidity;BME280_pressure;Samples;Min_cycle;Max_cycle;Signal;HPM_P1;HPM_P2
2021/12/08 00:00:23;;;;;;;7.18;2.65;;;3.50;99.90;;;;;;5053633;28;20033;-82
2021/12/08 00:02:49;;;;;;;6.13;2.40;;;3.50;99.90;;;;;;5053763;28;20021;-82
2021/12/08 00:05:17;;;;;;;6.35;2.47;;;3.90;99.90;;;;;;5053591;28;20017;-82
2021/12/08 00:07:43;;;;;;;8.10;2.78;;;3.60;99.90;;;;;;5052344;28;20029;-82
2021/12/08 00:10:39;;;;;;;4.18;2.45;;;3.70;99.90;;;;;;5053754;28;20030;-82
2021/12/08 00:13:07;;;;;;;5.07;3.25;;;3.60;99.90;;;;;;5053474;28;20032;-83
2021/12/08 00:15:36;;;;;;;5.63;3.20;;;3.90;99.90;;;;;;5052369;28;20052;-83
2021/12/08 00:18:04;;;;;;;7.28;2.90;;;4.00;99.90;;;;;;5053460;28;20383;-82
2021/12/08 00:20:32;;;;;;;6.82;3.13;;;3.70;99.90;;;;;;5053789;28;20534;-83
2021/12/08 00:22:59;;;;;;;4.80;2.90;;;4.00;99.90;;;;;;5052091;28;20020;-82
2021/12/08 00:25:25;;;;;;;4.50;2.22;;;3.90;99.90;;;;;;5053262;28;20445;-82
2021/12/08 00:27:51;;;;;;;7.25;2.15;;;4.10;99.90;;;;;;5053294;28;20032;-82
2021/12/08 00:30:18;;;;;;;10.82;3.22;;;3.70;99.90;;;;;;5053369;28;20025;-82
2021/12/08 00:32:45;;;;;;;9.80;2.53;;;4.10;99.90;;;;;;5052276;28;20025;-82
2021/12/08 00:35:11;;;;;;;5.82;2.75;;;3.90;99.90;;;;;;5053193;28;20139;-82
2021/12/08 00:37:37;;;;;;;5.32;2.65;;;3.90;99.90;;;;;;5051894;28;20554;-82
2021/12/08 00:40:05;;;;;;;5.30;2.92;;;3.90;99.90;;;;;;5052214;28;20029;-81
2021/12/08 00:42:31;;;;;;;5.93;2.83;;;3.70;99.90;;;;;;5053270;28;20021;-82
2021/12/08 00:44:58;;;;;;;4.03;2.05;;;3.80;99.90;;;;;;5052468;28;20636;-82
2021/12/08 00:47:24;;;;;;;4.38;2.42;;;3.70;99.90;;;;;;5055819;28;20024;-82
2021/12/08 00:49:49;;;;;;;6.72;3.97;;;4.20;99.90;;;;;;5057371;28;20438;-81
2021/12/08 00:52:15;;;;;;;7.10;3.15;;;3.80;99.90;;;;;;5057010;28;20028;-81
2021/12/08 00:54:42;;;;;;;3.88;3.47;;;3.80;99.90;;;;;;5057203;28;20029;-81
2021/12/08 00:57:08;;;;;;;6.97;3.40;;;4.40;99.90;;;;;;5056820;28;20067;-82
2021/12/08 00:59:34;;;;;;;6.28;3.42;;;4.10;99.90;;;;;;5056824;28;20033;-81
2021/12/08 01:02:02;;;;;;;4.20;2.67;;;4.20;99.90;;;;;;5056728;28;20021;-81
2021/12/08 01:04:35;;;;;;;4.88;2.83;;;4.20;99.90;;;;;;5057055;28;20365;-82
2021/12/08 01:07:02;;;;;;;8.88;3.67;;;4.60;99.90;;;;;;5056983;28;20063;-82
2021/12/08 01:09:28;;;;;;;7.38;3.60;;;4.20;99.90;;;;;;5056589;28;20025;-82
2021/12/08 01:11:56;;;;;;;8.50;2.67;;;4.20;99.90;;;;;;5056595;28;20024;-82
2021/12/08 01:14:23;;;;;;;6.95;3.85;;;4.00;99.90;;;;;;5056867;28;20055;-83
2021/12/08 01:16:48;;;;;;;8.10;4.15;;;4.20;99.90;;;;;;5056504;28;20025;-82
2021/12/08 01:19:14;;;;;;;6.13;2.65;;;4.00;99.90;;;;;;5056648;28;20358;-83
2021/12/08 01:21:40;;;;;;;6.70;3.65;;;4.20;99.90;;;;;;5056797;28;20098;-83
2021/12/08 01:24:05;;;;;;;5.28;2.88;;;4.00;99.90;;;;;;5056606;28;20104;-83
2021/12/08 01:26:31;;;;;;;7.53;3.45;;;4.00;99.90;;;;;;5056563;28;20029;-82
2021/12/08 01:28:57;;;;;;;8.88;3.05;;;4.00;99.90;;;;;;5056510;28;20021;-82
2021/12/08 01:31:24;;;;;;;10.60;3.13;;;4.20;99.90;;;;;;5056650;28;20020;-82
2021/12/08 01:33:50;;;;;;;6.38;3.67;;;4.40;99.90;;;;;;5056515;28;20041;-83
2021/12/08 01:36:16;;;;;;;6.68;3.40;;;4.00;99.90;;;;;;5054859;28;20112;-82
2021/12/08 01:38:42;;;;;;;5.28;3.15;;;4.10;99.90;;;;;;5056091;28;20036;-83
2021/12/08 01:41:07;;;;;;;6.22;3.55;;;4.10;99.90;;;;;;5056065;28;20029;-83
2021/12/08 01:43:43;;;;;;;6.90;4.22;;;4.60;99.90;;;;;;5055049;28;20032;-83
2021/12/08 01:46:13;;;;;;;4.45;2.92;;;4.50;99.90;;;;;;5056300;28;20151;-83
2021/12/08 01:48:40;;;;;;;;;;;4.30;99.90;;;;;;5056447;28;20078;-83
2021/12/08 01:51:10;;;;;;;8.20;3.42;;;4.20;99.90;;;;;;5054533;28;19911;-82
2021/12/08 01:53:42;;;;;;;9.02;3.88;;;4.10;99.90;;;;;;5054903;28;20020;-82
2021/12/08 01:56:09;;;;;;;7.20;3.88;;;4.60;99.90;;;;;;5055859;28;20029;-83
2021/12/08 01:58:35;;;;;;;6.45;3.85;;;4.20;99.90;;;;;;5053986;28;20585;-83
2021/12/08 02:01:06;;;;;;;6.03;3.60;;;4.80;99.90;;;;;;5055660;28;20035;-82
2021/12/08 02:03:32;;;;;;;6.45;4.45;;;4.40;99.90;;;;;;5055649;28;20017;-83
2021/12/08 02:05:58;;;;;;;8.20;3.92;;;4.60;99.90;;;;;;5054273;28;20031;-82
2021/12/08 02:08:26;;;;;;;5.97;3.42;;;4.80;99.90;;;;;;5055688;28;20130;-83
2021/12/08 02:10:52;;;;;;;7.85;4.15;;;4.70;99.90;;;;;;5054321;28;20503;-83
2021/12/08 02:13:19;;;;;;;8.50;4.13;;;4.80;99.90;;;;;;5055370;28;20017;-83
2021/12/08 02:15:46;;;;;;;5.22;4.15;;;4.70;99.90;;;;;;5053856;28;20021;-83
2021/12/08 02:18:14;;;;;;;5.55;3.65;;;4.80;99.90;;;;;;5055359;28;20056;-82
2021/12/08 02:20:42;;;;;;;7.00;3.78;;;4.80;99.90;;;;;;5054187;28;20068;-83
2021/12/08 02:23:07;;;;;;;6.40;4.63;;;4.70;99.90;;;;;;5055451;28;20108;-83
2021/12/08 02:25:33;;;;;;;4.30;2.97;;;4.90;99.90;;;;;;5054022;28;20052;-83
2021/12/08 02:28:00;;;;;;;9.57;4.75;;;4.40;99.90;;;;;;5055173;28;20029;-83
2021/12/08 02:30:46;;;;;;;11.95;5.60;;;4.80;99.90;;;;;;5055121;28;20024;-82
2021/12/08 02:47:17;;;;;;;8.57;4.82;;;4.60;99.90;;;;;;5054980;28;20124;-82
2021/12/08 02:49:43;;;;;;;6.72;4.72;;;4.70;99.90;;;;;;5053481;28;20028;-82
2021/12/08 02:52:12;;;;;;;7.80;4.88;;;5.00;99.90;;;;;;5054782;28;20025;-83
2021/12/08 02:54:45;;;;;;;7.70;5.28;;;4.90;99.90;;;;;;5054756;28;20435;-83
2021/12/08 02:57:14;;;;;;;7.20;5.20;;;5.20;99.90;;;;;;5054442;28;20491;-83
2021/12/08 02:59:41;;;;;;;9.02;5.82;;;4.70;99.90;;;;;;5053297;28;20044;-83
2021/12/08 03:02:07;;;;;;;7.82;5.38;;;4.70;99.90;;;;;;5054724;28;20029;-83
2021/12/08 03:04:33;;;;;;;8.55;5.07;;;4.70;99.90;;;;;;5053341;28;20079;-82
2021/12/08 03:06:59;;;;;;;7.32;4.80;;;4.70;99.90;;;;;;5054499;28;20029;-82
2021/12/08 03:09:25;;;;;;;8.27;4.78;;;4.70;99.90;;;;;;5054435;28;20476;-83
2021/12/08 03:12:14;;;;;;;8.57;5.38;;;5.30;99.90;;;;;;5054424;28;20064;-83
2021/12/08 03:14:40;;;;;;;7.97;5.40;;;5.30;99.90;;;;;;5044257;28;20020;-83
2021/12/08 03:17:08;;;;;;;8.00;5.18;;;5.10;99.90;;;;;;5054392;28;20048;-83
2021/12/08 03:19:34;;;;;;;9.35;6.00;;;5.10;99.90;;;;;;5053130;28;20029;-83
2021/12/08 03:22:02;;;;;;;11.73;5.40;;;5.40;99.90;;;;;;5054451;28;20407;-83
2021/12/08 03:24:35;;;;;;;10.60;5.95;;;5.30;99.90;;;;;;5052723;28;20573;-83
2021/12/08 03:27:43;;;;;;;7.30;5.90;;;5.40;99.90;;;;;;5052922;28;20039;-83
2021/12/08 03:30:28;;;;;;;8.77;6.10;;;5.30;99.90;;;;;;5053063;28;20028;-83
2021/12/08 03:36:16;;;;;;;6.20;4.68;;;5.60;99.90;;;;;;5045838;28;20125;-83
2021/12/08 03:38:45;;;;;;;9.95;6.03;;;5.00;99.90;;;;;;5053903;28;20420;-83
2021/12/08 03:41:11;;;;;;;9.07;5.57;;;5.40;99.90;;;;;;5052604;28;20048;-82
2021/12/08 03:43:37;;;;;;;8.60;5.50;;;5.10;99.90;;;;;;5052470;28;20112;-83
2021/12/08 03:46:04;;;;;;;10.13;6.05;;;5.10;99.90;;;;;;5053926;28;20104;-83
2021/12/08 03:48:45;;;;;;;13.55;6.28;;;5.60;99.90;;;;;;5054333;28;20448;-83
2021/12/08 03:51:10;;;;;;;;;;;5.80;99.90;;;;;;5054788;28;20090;-83
2021/12/08 03:53:36;;;;;;;13.40;6.07;;;5.90;99.90;;;;;;5053755;28;20480;-83
2021/12/08 03:56:03;;;;;;;8.82;5.40;;;5.90;99.90;;;;;;5053975;28;20531;-83
2021/12/08 03:58:29;;;;;;;11.50;5.80;;;5.40;99.90;;;;;;5053656;28;20400;-83
2021/12/08 04:00:56;;;;;;;9.38;5.75;;;5.40;99.90;;;;;;5053694;28;20022;-83
2021/12/08 04:03:25;;;;;;;13.35;6.43;;;6.00;99.90;;;;;;5054200;28;20025;-83
2021/12/08 04:05:56;;;;;;;13.15;6.13;;;5.90;99.90;;;;;;5051997;28;20056;-83
2021/12/08 04:08:43;;;;;;;8.63;5.97;;;5.70;99.90;;;;;;5052288;28;20392;-83
2021/12/08 04:11:11;;;;;;;11.63;6.07;;;5.40;99.90;;;;;;5052351;28;20719;-83
2021/12/08 04:13:46;;;;;;;9.43;5.90;;;5.00;99.90;;;;;;5053489;28;20040;-83
2021/12/08 04:16:13;;;;;;;10.63;5.88;;;5.40;99.90;;;;;;5053649;28;20029;-83
2021/12/08 04:18:39;;;;;;;11.25;6.20;;;5.70;99.90;;;;;;5053563;28;20033;-83
2021/12/08 04:21:07;;;;;;;9.93;6.32;;;5.40;99.90;;;;;;5055744;28;20028;-83
2021/12/08 04:23:36;;;;;;;11.50;6.55;;;5.30;99.90;;;;;;5057979;28;20021;-83
2021/12/08 04:26:04;;;;;;;8.32;5.63;;;5.50;99.90;;;;;;5040130;28;20029;-83
2021/12/08 04:28:32;;;;;;;13.80;6.05;;;5.40;99.90;;;;;;5056446;28;20032;-83
2021/12/08 04:31:04;;;;;;;13.18;5.85;;;5.50;99.90;;;;;;5057520;28;20032;-83
2021/12/08 04:33:31;;;;;;;12.15;6.72;;;5.50;99.90;;;;;;5057822;28;20048;-83
2021/12/08 04:35:57;;;;;;;9.40;5.50;;;5.00;99.90;;;;;;5055986;28;20103;-83
2021/12/08 04:38:30;;;;;;;17.15;6.63;;;5.50;99.90;;;;;;5057697;28;20096;-83
2021/12/08 04:41:04;;;;;;;16.33;7.30;;;5.20;99.90;;;;;;5057333;28;20385;-83
2021/12/08 04:43:50;;;;;;;17.35;6.78;;;5.60;99.90;;;;;;5057787;28;20028;-83
2021/12/08 04:51:40;;;;;;;13.55;6.20;;;5.10;99.90;;;;;;5057510;28;20444;-83
2021/12/08 05:03:05;;;;;;;13.15;6.63;;;5.20;99.90;;;;;;5057183;28;20032;-83
2021/12/08 05:05:49;;;;;;;11.77;6.97;;;5.20;99.90;;;;;;5057111;28;20058;-83
2021/12/08 05:08:19;;;;;;;13.50;6.20;;;5.40;99.90;;;;;;5057270;28;20025;-83
2021/12/08 05:10:47;;;;;;;11.85;6.03;;;5.30;99.90;;;;;;5056913;28;20013;-83
2021/12/08 05:13:14;;;;;;;9.82;5.90;;;5.40;99.90;;;;;;5055208;28;20025;-83
2021/12/08 05:15:44;;;;;;;13.70;5.55;;;5.60;99.90;;;;;;5056440;28;20057;-84
2021/12/08 05:18:35;;;;;;;9.95;5.60;;;5.30;99.90;;;;;;5056704;28;20065;-83
2021/12/08 05:21:13;;;;;;;9.30;5.72;;;5.10;99.90;;;;;;5056468;28;20032;-84
2021/12/08 05:24:06;;;;;;;9.77;4.97;;;5.50;99.90;;;;;;5056494;28;20104;-83
2021/12/08 05:26:45;;;;;;;11.90;5.20;;;5.40;99.90;;;;;;5056169;28;20021;-83
2021/12/08 05:29:23;;;;;;;7.43;4.43;;;5.00;99.90;;;;;;5056596;28;20029;-83
2021/12/08 05:31:50;;;;;;;10.35;4.80;;;5.30;99.90;;;;;;5055096;28;20029;-83
2021/12/08 05:34:16;;;;;;;8.57;4.68;;;5.40;99.90;;;;;;5056099;28;20385;-83
2021/12/08 05:36:42;;;;;;;8.48;5.57;;;4.80;99.90;;;;;;5054690;28;20049;-83
2021/12/08 05:39:12;;;;;;;7.03;4.45;;;5.10;99.90;;;;;;5056083;28;20075;-83
2021/12/08 05:41:44;;;;;;;12.07;4.43;;;4.70;99.90;;;;;;5056036;28;20472;-83
2021/12/08 05:44:10;;;;;;;8.88;4.05;;;5.30;99.90;;;;;;5056082;28;20393;-83
2021/12/08 05:46:41;;;;;;;10.35;4.30;;;4.60;99.90;;;;;;5055951;28;20052;-83
2021/12/08 05:49:07;;;;;;;10.15;4.25;;;5.20;99.90;;;;;;5056011;28;20021;-83
2021/12/08 05:51:35;;;;;;;9.70;4.57;;;4.60;99.90;;;;;;5056142;28;20024;-83
2021/12/08 05:54:07;;;;;;;7.50;4.38;;;4.50;99.90;;;;;;5055983;28;20744;-83
2021/12/08 05:56:33;;;;;;;10.32;4.80;;;4.90;99.90;;;;;;5054727;28;20029;-83
2021/12/08 05:59:01;;;;;;;7.55;4.15;;;4.80;99.90;;;;;;5055839;28;20033;-83
2021/12/08 06:01:35;;;;;;;7.63;3.80;;;5.00;99.90;;;;;;5055896;28;20104;-84
2021/12/08 06:04:03;;;;;;;13.05;4.25;;;5.20;99.90;;;;;;5055811;28;20237;-84
2021/12/08 06:06:29;;;;;;;8.00;3.05;;;5.30;99.90;;;;;;5055381;28;20040;-84
2021/12/08 06:08:56;;;;;;;10.70;4.20;;;4.80;99.90;;;;;;5055723;28;20032;-84
2021/12/08 06:11:25;;;;;;;8.32;4.20;;;5.10;99.90;;;;;;5055867;28;20029;-84
2021/12/08 06:13:51;;;;;;;8.13;4.18;;;5.00;99.90;;;;;;5055676;28;20056;-84
2021/12/08 06:16:21;;;;;;;11.13;4.03;;;4.70;99.90;;;;;;5055484;28;20033;-85
2021/12/08 06:18:51;;;;;;;10.98;4.65;;;5.20;99.90;;;;;;5055958;28;20020;-85
2021/12/08 06:21:21;;;;;;;12.25;4.07;;;4.70;99.90;;;;;;5055770;28;20017;-84
2021/12/08 06:23:48;;;;;;;10.40;3.40;;;4.50;99.90;;;;;;5055568;28;20071;-84
2021/12/08 06:26:16;;;;;;;9.95;4.20;;;5.00;99.90;;;;;;5055523;28;20037;-84
2021/12/08 06:28:42;;;;;;;10.23;3.92;;;5.00;99.90;;;;;;5055142;28;20036;-84
2021/12/08 06:31:10;;;;;;;10.07;4.18;;;4.50;99.90;;;;;;5055254;28;20017;-84
2021/12/08 06:33:35;;;;;;;15.07;4.38;;;4.60;99.90;;;;;;5055258;28;20428;-84
2021/12/08 06:36:08;;;;;;;7.78;3.53;;;5.10;99.90;;;;;;5055314;28;20485;-84
2021/12/08 06:38:35;;;;;;;13.75;4.00;;;4.60;99.90;;;;;;5053692;28;20051;-85
2021/12/08 06:41:07;;;;;;;11.73;4.40;;;5.20;99.90;;;;;;5055029;28;20432;-85
2021/12/08 06:43:37;;;;;;;12.07;3.97;;;5.30;99.90;;;;;;5054525;28;20465;-85
2021/12/08 06:46:03;;;;;;;;;;;5.00;99.90;;;;;;5054268;28;20116;-84
2021/12/08 06:48:32;;;;;;;13.57;3.88;;;4.90;99.90;;;;;;5055081;28;19905;-84
2021/12/08 06:51:08;;;;;;;8.15;3.63;;;5.10;99.90;;;;;;5054911;28;20036;-84
2021/12/08 06:53:34;;;;;;;9.45;3.22;;;4.70;99.90;;;;;;5054924;28;20025;-83
2021/12/08 06:56:26;;;;;;;11.80;3.70;;;5.10;99.90;;;;;;5045844;28;20029;-84
2021/12/08 06:58:57;;;;;;;9.77;3.75;;;5.20;99.90;;;;;;5039487;28;20045;-83
2021/12/08 07:04:32;;;;;;;9.52;3.60;;;4.90;99.90;;;;;;5034894;28;20017;-84
2021/12/08 07:07:20;;;;;;;13.18;4.40;;;4.60;99.90;;;;;;5034802;28;20056;-83
2021/12/08 07:09:50;;;;;;;9.68;3.35;;;4.70;99.90;;;;;;5033438;28;20053;-84
2021/12/08 07:12:38;;;;;;;7.65;3.50;;;4.90;99.90;;;;;;5034678;28;20029;-83
2021/12/08 07:15:08;;;;;;;5.75;3.38;;;4.60;99.90;;;;;;5034564;28;20489;-79
2021/12/08 07:17:36;;;;;;;9.80;3.65;;;4.50;99.90;;;;;;5034484;28;20068;-80
2021/12/08 07:20:17;;;;;;;8.88;3.83;;;4.60;99.90;;;;;;5050018;28;20036;-80
2021/12/08 07:22:48;;;;;;;;;;;4.50;99.90;;;;;;5035254;28;20157;-80
2021/12/08 07:25:16;;;;;;;7.68;3.30;;;4.40;99.90;;;;;;5035196;28;19959;-80
2021/12/08 07:27:43;;;;;;;10.07;3.63;;;4.50;99.90;;;;;;5034480;28;20025;-79
2021/12/08 07:30:15;;;;;;;8.60;4.07;;;4.40;99.90;;;;;;5034297;28;20060;-80
2021/12/08 07:32:41;;;;;;;10.85;3.90;;;4.50;99.90;;;;;;5034524;28;20700;-80
2021/12/08 07:35:16;;;;;;;7.75;4.63;;;5.00;99.90;;;;;;5033960;28;20168;-80
2021/12/08 07:37:42;;;;;;;8.10;3.55;;;4.70;99.90;;;;;;5033873;28;20021;-80
2021/12/08 07:40:18;;;;;;;10.00;3.40;;;4.70;99.90;;;;;;5034445;28;20033;-80
2021/12/08 07:42:50;;;;;;;10.52;3.55;;;4.80;99.90;;;;;;5033615;28;20022;-80
2021/12/08 07:45:23;;;;;;;10.15;3.08;;;4.80;99.90;;;;;;5033881;28;20017;-80
2021/12/08 07:47:50;;;;;;;9.32;3.35;;;4.80;99.90;;;;;;5033703;28;20473;-80
2021/12/08 07:50:21;;;;;;;6.00;2.95;;;5.10;99.90;;;;;;5036431;28;20021;-80
2021/12/08 07:52:50;;;;;;;10.88;3.00;;;5.10;99.90;;;;;;5053358;28;20615;-80
2021/12/08 07:55:20;;;;;;;9.35;3.15;;;4.90;99.90;;;;;;5052883;28;20071;-80
2021/12/08 07:57:47;;;;;;;6.50;2.58;;;4.90;99.90;;;;;;5052056;28;20086;-79
2021/12/08 08:00:25;;;;;;;12.75;3.03;;;4.90;99.90;;;;;;5053538;28;20087;-81
2021/12/08 08:02:52;;;;;;;10.60;2.95;;;5.10;99.90;;;;;;5053204;28;20017;-85
2021/12/08 08:05:22;;;;;;;10.18;2.92;;;4.90;99.90;;;;;;5053349;28;20102;-85
2021/12/08 08:07:49;;;;;;;10.25;2.47;;;5.10;99.90;;;;;;5053675;28;20024;-85
2021/12/08 08:10:16;;;;;;;10.05;3.65;;;4.80;99.90;;;;;;5053352;28;20033;-85
2021/12/08 08:12:44;;;;;;;7.95;2.75;;;5.10;99.90;;;;;;5053016;28;20033;-85
2021/12/08 08:15:25;;;;;;;5.97;2.03;;;4.90;99.90;;;;;;5053354;28;20101;-85
2021/12/08 08:17:53;;;;;;;6.88;1.83;;;4.90;99.90;;;;;;5053367;28;20055;-85
2021/12/08 08:20:24;;;;;;;10.65;2.50;;;4.90;99.90;;;;;;5053562;28;20086;-87
2021/12/08 08:22:50;;;;;;;7.38;2.22;;;4.70;99.90;;;;;;5051838;28;20025;-86
2021/12/08 08:25:20;;;;;;;10.05;1.95;;;4.70;99.90;;;;;;5052955;28;20053;-86
2021/12/08 08:27:46;;;;;;;6.50;2.25;;;4.70;99.90;;;;;;5052983;28;20098;-86
2021/12/08 08:30:18;;;;;;;7.13;1.75;;;4.60;99.90;;;;;;5052124;28;20099;-85
2021/12/08 08:32:47;;;;;;;7.15;2.13;;;4.70;99.90;;;;;;5053224;28;20112;-86
2021/12/08 08:35:33;;;;;;;8.35;2.28;;;4.70;99.90;;;;;;5053128;28;20108;-86
2021/12/08 08:38:05;;;;;;;7.43;2.85;;;4.60;99.90;;;;;;5053320;28;20048;-86
2021/12/08 08:40:38;;;;;;;10.48;2.30;;;4.70;99.90;;;;;;5053253;28;20091;-86
2021/12/08 08:43:05;;;;;;;4.07;1.55;;;4.80;99.90;;;;;;5052066;28;20036;-86
2021/12/08 08:45:55;;;;;;;8.07;2.38;;;4.70;99.90;;;;;;5051741;28;20484;-86
2021/12/08 08:48:29;;;;;;;7.60;2.05;;;4.90;99.90;;;;;;5045649;28;20045;-86
2021/12/08 08:51:36;;;;;;;4.55;1.58;;;4.90;99.90;;;;;;5038908;28;20508;-86
2021/12/08 08:54:23;;;;;;;4.60;1.63;;;4.90;99.90;;;;;;5046909;28;20041;-81
2021/12/08 08:56:57;;;;;;;3.60;1.67;;;5.10;99.90;;;;;;5048721;28;20032;-80
2021/12/08 08:59:33;;;;;;;9.38;1.92;;;5.40;99.90;;;;;;5049208;28;20044;-81
2021/12/08 09:02:03;;;;;;;3.83;1.17;;;5.50;99.90;;;;;;5049931;28;20021;-80
2021/12/08 09:04:33;;;;;;;10.90;1.70;;;5.50;99.90;;;;;;5039905;28;20017;-81
2021/12/08 09:07:02;;;;;;;5.88;1.60;;;5.60;99.90;;;;;;5034809;28;20022;-81
2021/12/08 09:09:32;;;;;;;7.50;2.05;;;5.50;99.90;;;;;;5037116;28;20022;-81
2021/12/08 09:12:12;;;;;;;4.77;1.53;;;5.70;99.90;;;;;;5035230;28;20029;-81
2021/12/08 09:14:57;;;;;;;7.78;2.13;;;5.60;99.90;;;;;;5036750;28;20104;-81
2021/12/08 09:17:34;;;;;;;3.80;1.60;;;5.60;99.90;;;;;;5036332;28;20040;-81
2021/12/08 09:20:29;;;;;;;8.07;2.00;;;5.70;99.90;;;;;;5037017;28;20025;-81
2021/12/08 09:23:07;;;;;;;6.32;2.13;;;5.60;99.90;;;;;;5053432;28;20104;-81
2021/12/08 09:25:50;;;;;;;7.32;1.83;;;5.70;99.90;;;;;;5056686;28;20108;-81
2021/12/08 09:28:26;;;;;;;5.45;2.33;;;5.70;99.90;;;;;;5056843;28;20039;-80
2021/12/08 09:31:07;;;;;;;8.10;2.28;;;5.80;99.90;;;;;;5056572;28;20047;-80
2021/12/08 09:33:44;;;;;;;10.40;2.40;;;5.60;99.90;;;;;;5056160;28;20100;-80
2021/12/08 09:36:14;;;;;;;6.93;1.92;;;5.80;99.90;;;;;;5054619;28;20130;-80
2021/12/08 09:38:45;;;;;;;8.93;2.45;;;5.80;99.90;;;;;;5056149;28;20032;-81
2021/12/08 09:41:25;;;;;;;4.97;2.58;;;5.70;99.90;;;;;;5054795;28;20061;-81
2021/12/08 09:44:00;;;;;;;6.25;2.35;;;5.50;99.90;;;;;;5055652;28;20025;-81
2021/12/08 09:46:33;;;;;;;7.53;2.38;;;5.50;99.90;;;;;;5052958;28;20051;-81
2021/12/08 09:48:59;;;;;;;9.07;2.40;;;5.50;99.90;;;;;;5055099;28;20021;-80
2021/12/08 09:51:26;;;;;;;7.57;1.80;;;5.70;99.90;;;;;;5055688;28;20469;-80
2021/12/08 09:53:52;;;;;;;6.22;2.45;;;5.60;99.90;;;;;;5055946;28;20100;-80
2021/12/08 09:56:19;;;;;;;8.45;2.63;;;5.70;99.90;;;;;;5055279;28;20045;-80
2021/12/08 09:58:45;;;;;;;7.80;2.88;;;5.70;99.90;;;;;;5055185;28;20418;-81
2021/12/08 10:01:16;;;;;;;9.57;2.92;;;5.70;99.90;;;;;;5055399;28;20480;-81
2021/12/08 10:03:43;;;;;;;7.10;2.50;;;5.70;99.90;;;;;;5054559;28;20025;-81
2021/12/08 10:06:12;;;;;;;7.47;2.22;;;5.60;99.90;;;;;;5053028;28;20021;-81
2021/12/08 10:08:37;;;;;;;8.35;2.42;;;5.60;99.90;;;;;;5053171;28;20017;-81
2021/12/08 10:11:03;;;;;;;9.38;2.80;;;5.60;99.90;;;;;;5053473;28;20032;-81
2021/12/08 10:13:29;;;;;;;6.47;2.45;;;5.60;99.90;;;;;;5053181;28;20074;-81
2021/12/08 10:15:54;;;;;;;6.60;1.85;;;5.80;99.90;;;;;;5053124;28;20056;-81
2021/12/08 10:18:20;;;;;;;6.50;2.20;;;5.90;99.90;;;;;;5052321;28;20098;-81
2021/12/08 10:20:47;;;;;;;9.35;2.58;;;6.20;99.90;;;;;;5052995;28;20025;-81
2021/12/08 10:23:23;;;;;;;6.65;1.83;;;6.20;99.90;;;;;;5053022;28;20013;-81
2021/12/08 10:25:56;;;;;;;8.73;1.92;;;6.20;99.90;;;;;;5053039;28;20527;-81
2021/12/08 10:28:31;;;;;;;4.68;2.05;;;6.20;99.90;;;;;;5051471;28;20116;-80
2021/12/08 10:30:57;;;;;;;5.68;2.28;;;6.20;99.90;;;;;;5051581;28;20472;-81
2021/12/08 10:34:03;;;;;;;5.80;1.90;;;6.10;99.90;;;;;;5052357;28;20083;-81
2021/12/08 10:39:21;;;;;;;5.82;1.42;;;6.20;99.90;;;;;;5052699;28;20452;-81
2021/12/08 10:41:52;;;;;;;10.32;2.10;;;6.30;99.90;;;;;;5053233;28;20453;-81
2021/12/08 10:44:31;;;;;;;6.35;1.95;;;6.30;99.90;;;;;;5052102;28;20112;-81
2021/12/08 10:46:58;;;;;;;6.60;1.95;;;6.40;99.90;;;;;;5052377;28;20049;-81
2021/12/08 10:54:49;;;;;;;3.45;1.42;;;6.00;99.90;;;;;;5052262;28;20032;-81
2021/12/08 10:57:35;;;;;;;5.75;2.10;;;6.00;99.90;;;;;;5052306;28;20033;-82
2021/12/08 11:00:09;;;;;;;4.28;1.80;;;5.90;99.90;;;;;;5052450;28;20025;-82
2021/12/08 11:02:36;;;;;;;7.93;1.80;;;6.00;99.90;;;;;;5052136;28;20036;-80
2021/12/08 11:05:04;;;;;;;6.40;1.73;;;6.00;99.90;;;;;;5051932;28;20393;-82
2021/12/08 11:07:29;;;;;;;9.70;2.75;;;6.00;99.90;;;;;;5052557;28;20122;-81
2021/12/08 11:09:55;;;;;;;9.27;2.20;;;6.20;99.90;;;;;;5052269;28;20500;-83
2021/12/08 11:12:21;;;;;;;3.15;1.88;;;6.20;99.90;;;;;;5051393;28;20115;-80
2021/12/08 11:14:50;;;;;;;5.38;2.25;;;6.00;99.90;;;;;;5051852;28;20029;-83
2021/12/08 11:17:28;;;;;;;6.32;3.10;;;5.90;99.90;;;;;;5051800;28;20048;-83
2021/12/08 11:20:13;;;;;;;5.95;2.53;;;5.90;99.90;;;;;;5051777;28;20582;-81
2021/12/08 11:22:39;;;;;;;5.15;2.90;;;6.20;99.90;;;;;;5050970;28;20398;-81
2021/12/08 11:25:06;;;;;;;4.72;2.92;;;6.40;99.90;;;;;;5051867;28;20464;-81
2021/12/08 11:27:36;;;;;;;8.05;2.97;;;6.70;99.90;;;;;;5041928;28;20032;-81
2021/12/08 11:30:13;;;;;;;5.65;3.20;;;6.80;99.90;;;;;;5035346;28;20022;-81
2021/12/08 11:32:39;;;;;;;8.07;3.10;;;6.50;99.90;;;;;;5031382;28;20056;-81
2021/12/08 11:35:05;;;;;;;6.57;3.03;;;6.50;99.90;;;;;;5030998;28;20017;-81
2021/12/08 11:37:35;;;;;;;6.53;3.25;;;6.30;99.90;;;;;;5041300;28;20029;-81
2021/12/08 11:40:02;;;;;;;;;;;6.10;99.90;;;;;;5035919;28;20469;-81
2021/12/08 11:42:35;;;;;;;7.65;3.50;;;6.10;99.90;;;;;;5040200;28;19908;-81
2021/12/08 11:45:12;;;;;;;8.90;3.95;;;6.30;99.90;;;;;;5049350;28;20486;-81
2021/12/08 11:47:38;;;;;;;8.52;2.88;;;6.50;99.90;;;;;;5043803;28;20017;-81
2021/12/08 11:50:21;;;;;;;5.70;3.60;;;6.40;99.90;;;;;;5048003;28;20024;-80
2021/12/08 11:52:51;;;;;;;9.27;3.38;;;6.40;99.90;;;;;;5042041;28;20469;-80
2021/12/08 11:55:19;;;;;;;14.50;3.92;;;6.20;99.90;;;;;;5036054;28;20035;-81
2021/12/08 11:57:51;;;;;;;7.45;3.45;;;6.00;99.90;;;;;;5031107;28;20025;-80
2021/12/08 12:00:32;;;;;;;8.32;3.70;;;5.90;99.90;;;;;;5033183;28;20428;-81
2021/12/08 12:03:01;;;;;;;8.02;3.33;;;5.90;99.90;;;;;;5031827;28;20112;-80
2021/12/08 12:05:43;;;;;;;8.10;3.80;;;6.00;99.90;;;;;;5030985;28;20021;-81
2021/12/08 12:08:11;;;;;;;8.75;4.40;;;6.10;99.90;;;;;;5031126;28;20262;-79
2021/12/08 12:10:40;;;;;;;8.60;3.92;;;6.20;99.90;;;;;;5041011;28;20033;-79
2021/12/08 12:13:08;;;;;;;5.20;4.07;;;6.40;99.90;;;;;;5040794;28;20033;-79
2021/12/08 12:15:36;;;;;;;8.27;4.47;;;6.40;99.90;;;;;;5049868;28;20033;-80
2021/12/08 12:18:03;;;;;;;5.82;3.72;;;6.50;99.90;;;;;;5051096;28;20112;-79
2021/12/08 12:20:50;;;;;;;6.63;3.83;;;6.40;99.90;;;;;;5050837;28;20055;-79
2021/12/08 12:23:30;;;;;;;5.55;3.78;;;6.40;99.90;;;;;;5050776;28;20040;-79
2021/12/08 12:26:20;;;;;;;4.85;3.75;;;6.50;99.90;;;;;;5051055;28;20013;-79
2021/12/08 12:29:05;;;;;;;6.22;3.63;;;6.40;99.90;;;;;;5051096;28;20032;-79
2021/12/08 12:31:54;;;;;;;4.85;3.78;;;6.30;99.90;;;;;;5048210;28;20030;-79
2021/12/08 12:34:24;;;;;;;10.70;4.30;;;6.30;99.90;;;;;;5033451;28;20392;-80
2021/12/08 12:36:50;;;;;;;4.95;3.70;;;6.30;99.90;;;;;;5043904;28;20078;-79
2021/12/08 12:39:19;;;;;;;5.45;3.88;;;6.20;99.90;;;;;;5052107;28;20456;-79
2021/12/08 12:42:15;;;;;;;6.47;4.40;;;6.20;99.90;;;;;;5055056;28;20028;-79
2021/12/08 12:44:45;;;;;;;9.65;3.90;;;6.10;99.90;;;;;;5057649;28;20043;-78
2021/12/08 12:47:24;;;;;;;5.40;3.88;;;6.20;99.90;;;;;;5057877;28;20021;-79
2021/12/08 12:50:08;;;;;;;6.15;3.88;;;6.20;99.90;;;;;;5057310;28;20108;-79
2021/12/08 12:52:42;;;;;;;9.13;4.53;;;6.10;99.90;;;;;;5057411;28;20511;-79
2021/12/08 12:55:14;;;;;;;7.85;4.05;;;6.10;99.90;;;;;;5057149;28;20067;-79
2021/12/08 12:58:03;;;;;;;6.03;3.85;;;6.10;99.90;;;;;;5056914;28;20078;-79
2021/12/08 13:00:39;;;;;;;5.90;4.03;;;6.20;99.90;;;;;;5057244;28;20456;-79
2021/12/08 13:03:05;;;;;;;5.90;3.92;;;6.10;99.90;;;;;;5037111;28;20029;-79
2021/12/08 13:05:47;;;;;;;8.45;3.88;;;6.00;99.90;;;;;;5037069;28;20026;-79
2021/12/08 13:08:31;;;;;;;5.88;4.28;;;5.90;99.90;;;;;;5037058;28;20025;-82
2021/12/08 13:11:10;;;;;;;5.72;4.00;;;5.90;99.90;;;;;;5050700;28;20408;-78
2021/12/08 13:13:47;;;;;;;4.88;4.10;;;5.80;99.90;;;;;;5049975;28;20691;-81
2021/12/08 13:16:34;;;;;;;8.38;3.90;;;5.80;99.90;;;;;;5036715;28;20401;-79
2021/12/08 13:19:03;;;;;;;4.07;3.50;;;5.70;99.90;;;;;;5035205;28;20481;-79
2021/12/08 13:21:49;;;;;;;9.70;3.80;;;5.70;99.90;;;;;;5036028;28;20021;-79
2021/12/08 13:24:36;;;;;;;5.07;3.65;;;5.80;99.90;;;;;;5036098;28;20045;-79
2021/12/08 13:27:08;;;;;;;4.82;3.28;;;5.70;99.90;;;;;;5034233;28;20036;-79
2021/12/08 13:29:38;;;;;;;6.07;3.25;;;5.70;99.90;;;;;;5036477;28;20028;-79
2021/12/08 13:47:22;;;;;;;6.65;3.40;;;5.70;99.90;;;;;;4900068;29;20055;-79
2021/12/08 13:49:57;;;;;;;8.30;3.83;;;5.70;99.90;;;;;;4981168;28;20035;-79
2021/12/08 13:52:57;;;;;;;7.28;3.03;;;5.60;99.90;;;;;;5035412;28;20182;-81
2021/12/08 13:55:24;;;;;;;;;;;5.70;99.90;;;;;;5035432;28;20568;-79
2021/12/08 13:58:07;;;;;;;4.20;3.00;;;5.60;99.90;;;;;;5053359;28;19935;-79
2021/12/08 14:00:39;;;;;;;6.68;3.47;;;5.70;99.90;;;;;;5052625;28;20369;-79
2021/12/08 14:03:15;;;;;;;3.60;2.78;;;5.60;99.90;;;;;;5052808;28;20031;-79
2021/12/08 14:05:47;;;;;;;4.75;3.00;;;5.60;99.90;;;;;;5053193;28;20476;-79
2021/12/08 14:08:27;;;;;;;5.07;2.95;;;5.60;99.90;;;;;;5053375;28;20021;-79
2021/12/08 14:11:14;;;;;;;4.82;2.65;;;5.50;99.90;;;;;;5052986;28;20112;-79
2021/12/08 14:13:43;;;;;;;5.43;2.90;;;5.50;99.90;;;;;;5053235;28;20033;-79
2021/12/08 14:16:18;;;;;;;7.25;2.35;;;5.40;99.90;;;;;;5053082;28;20024;-79